CYKL

Schefferville Airport

Airport
ICAO code
CYKL
IATA Code
YKL
Summary
ICAO Region
NAT
ICAO Territory
Location

Schefferville, Quebec, Canada

Serving
Schefferville
Elevation
1709 ft
Coordinates
54° 48' 19" N , 66° 48' 19" W
KCC
Metar
Observation
CYKL 310846Z AUTO 33006KT 6SM -SN BKN015 OVC022 M11/M13 A2991 RMK SLP175
Station
Schefferville, Que.
Date/Time
2023-03-31 08:46:00
Wind direction
330°
Wind speed
06 kts
Lowest cloud amount
broken clouds
Temperature
-11°C
Dew point
-13°C
Humidity
85%
Weather condition
light snow

Scefferville Airport is loctaed adjacent to the community of Schefferville, Quebec, Canada.

Runways

Designator Length Width Surface Rops
18/36 1524 46 ASP No/No

Airport map

Aerial View

SKYbrary Partners:

Safety knowledge contributed by: